Time;durP1;ratioP1;P1;durP2;ratioP2;P2;SDS_P1;SDS_P2;PMS_P1;PMS_P2;Temp;Humidity;BMP_temperature;BMP_pressure;BME280_temperature;BME280_humidity;BME280_pressure;Samples;Min_cycle;Max_cycle;Signal;HPM_P1;HPM_P2
2021/01/04 00:01:08;;;;;;;157.80;62.78;;;-0.30;99.90;;;;;;5016543;28;20156;-73
2021/01/04 00:03:34;;;;;;;141.32;59.50;;;-0.30;99.90;;;;;;5021838;28;20082;-73
2021/01/04 00:06:16;;;;;;;150.80;62.30;;;-0.30;99.90;;;;;;5026909;28;20147;-73
2021/01/04 00:09:20;;;;;;;151.90;62.33;;;-0.30;99.90;;;;;;5023932;28;20049;-74
2021/01/04 00:11:49;;;;;;;152.88;60.70;;;-0.40;99.90;;;;;;5027490;28;20125;-73
2021/01/04 00:14:37;;;;;;;140.43;60.45;;;-0.40;99.90;;;;;;5043255;28;20124;-74
2021/01/04 00:17:19;;;;;;;149.23;61.92;;;-0.40;99.90;;;;;;5046734;28;20068;-74
2021/01/04 00:20:09;;;;;;;156.82;65.57;;;-0.40;99.90;;;;;;5046452;28;20049;-74
2021/01/04 00:22:48;;;;;;;152.10;62.35;;;-0.40;99.90;;;;;;5033208;28;20124;-73
2021/01/04 00:25:26;;;;;;;153.45;64.43;;;-0.40;99.90;;;;;;5045990;28;20068;-74
2021/01/04 00:28:26;;;;;;;161.98;63.42;;;-0.40;99.90;;;;;;5045730;28;20077;-73
2021/01/04 00:31:20;;;;;;;158.30;64.38;;;-0.40;99.90;;;;;;5045334;28;20107;-73
2021/01/04 00:33:54;;;;;;;156.38;63.13;;;-0.40;99.90;;;;;;5015584;28;20041;-74
2021/01/04 00:36:34;;;;;;;159.15;64.63;;;-0.40;99.90;;;;;;5046389;28;20045;-74
2021/01/04 00:39:12;;;;;;;152.63;61.72;;;-0.40;99.90;;;;;;5040698;28;20137;-74
2021/01/04 00:42:10;;;;;;;176.25;62.17;;;-0.40;99.90;;;;;;5024902;28;20090;-74
2021/01/04 00:44:59;;;;;;;159.45;61.72;;;-0.40;99.90;;;;;;5045512;28;20048;-74
2021/01/04 00:47:47;;;;;;;141.45;58.55;;;-0.40;99.90;;;;;;5015939;28;20076;-74
2021/01/04 00:50:48;;;;;;;159.68;65.40;;;-0.40;99.90;;;;;;5045722;28;20127;-74
2021/01/04 00:53:45;;;;;;;168.52;63.05;;;-0.40;99.90;;;;;;5045876;28;20045;-74
2021/01/04 00:56:36;;;;;;;165.15;63.50;;;-0.40;99.90;;;;;;5031072;28;20530;-73
2021/01/04 00:59:24;;;;;;;171.07;63.70;;;-0.40;99.90;;;;;;5026969;28;20144;-73
2021/01/04 01:02:03;;;;;;;170.65;65.68;;;-0.40;99.90;;;;;;5028128;28;20069;-74
2021/01/04 01:05:00;;;;;;;167.95;63.75;;;-0.40;99.90;;;;;;5044694;28;20115;-74
2021/01/04 01:07:34;;;;;;;169.95;63.15;;;-0.40;99.90;;;;;;5044926;28;20075;-74
2021/01/04 01:10:16;;;;;;;174.60;64.05;;;-0.40;99.90;;;;;;5045460;28;20103;-74
2021/01/04 01:13:24;;;;;;;171.27;64.85;;;-0.40;99.90;;;;;;5031508;28;20079;-73
2021/01/04 01:16:04;;;;;;;183.82;67.50;;;-0.40;99.90;;;;;;5004497;28;20061;-73
2021/01/04 01:18:47;;;;;;;190.13;68.10;;;-0.40;99.90;;;;;;5044633;28;20752;-73
2021/01/04 01:21:13;;;;;;;192.18;72.40;;;-0.50;99.90;;;;;;5027547;28;20068;-73
2021/01/04 01:23:41;;;;;;;170.40;66.28;;;-0.50;99.90;;;;;;5044759;28;20103;-73
2021/01/04 01:26:13;;;;;;;180.70;69.00;;;-0.50;99.90;;;;;;5045042;28;20132;-73
2021/01/04 01:29:00;;;;;;;185.30;68.13;;;-0.50;99.90;;;;;;5044431;28;20056;-73
2021/01/04 01:31:33;;;;;;;178.57;67.40;;;-0.50;99.90;;;;;;5027417;28;20176;-74
2021/01/04 01:34:37;;;;;;;181.65;70.05;;;-0.50;99.90;;;;;;5044369;28;20040;-73
2021/01/04 01:37:30;;;;;;;194.65;68.25;;;-0.50;99.90;;;;;;5024953;28;20087;-74
2021/01/04 01:40:15;;;;;;;179.98;68.78;;;-0.40;99.90;;;;;;5025468;28;20049;-74
2021/01/04 01:42:47;;;;;;;185.10;68.45;;;-0.50;99.90;;;;;;5044261;28;20076;-73
2021/01/04 01:45:14;;;;;;;190.30;70.85;;;-0.40;99.90;;;;;;5044940;28;20107;-73
2021/01/04 01:48:05;;;;;;;183.02;67.25;;;-0.40;99.90;;;;;;5044517;28;20660;-74
2021/01/04 01:50:52;;;;;;;182.02;67.78;;;-0.50;99.90;;;;;;5044843;28;20360;-73
2021/01/04 01:54:03;;;;;;;201.40;71.45;;;-0.50;99.90;;;;;;5044616;28;20718;-74
2021/01/04 01:56:35;;;;;;;197.50;70.22;;;-0.50;99.90;;;;;;5012329;28;20128;-74
2021/01/04 01:59:46;;;;;;;195.43;71.10;;;-0.50;99.90;;;;;;5044008;28;20052;-74
2021/01/04 02:02:32;;;;;;;191.15;68.20;;;-0.50;99.90;;;;;;4966182;28;20098;-74
2021/01/04 02:05:27;;;;;;;183.13;69.05;;;-0.50;99.90;;;;;;5019604;28;20130;-73
2021/01/04 02:08:00;;;;;;;195.30;69.43;;;-0.50;99.90;;;;;;5026622;28;20048;-74
2021/01/04 02:10:32;;;;;;;214.27;71.25;;;-0.50;99.90;;;;;;5043935;28;20133;-74
2021/01/04 02:13:04;;;;;;;;;;;-0.50;99.90;;;;;;5026845;28;20053;-73
2021/01/04 02:15:52;;;;;;;199.32;69.57;;;-0.50;99.90;;;;;;5040235;28;19920;-73
2021/01/04 02:18:25;;;;;;;189.07;68.10;;;-0.50;99.90;;;;;;5044073;28;20049;-73
2021/01/04 02:21:34;;;;;;;218.43;74.03;;;-0.50;99.90;;;;;;5044471;28;20045;-73
2021/01/04 02:24:02;;;;;;;195.70;71.30;;;-0.50;99.90;;;;;;5043678;28;20122;-74
2021/01/04 02:26:29;;;;;;;209.77;72.97;;;-0.50;99.90;;;;;;5044239;28;20467;-74
2021/01/04 02:29:08;;;;;;;216.40;72.82;;;-0.50;99.90;;;;;;5043395;28;20177;-74
2021/01/04 02:31:37;;;;;;;214.63;73.82;;;-0.50;99.90;;;;;;5013884;28;20083;-73
2021/01/04 02:34:09;;;;;;;198.35;72.22;;;-0.50;99.90;;;;;;5025347;28;20122;-74
2021/01/04 02:36:56;;;;;;;142.73;53.30;;;-0.50;99.90;;;;;;5026457;28;20041;-73
2021/01/04 02:39:46;;;;;;;195.35;70.40;;;-0.50;99.90;;;;;;5043397;28;20623;-74
2021/01/04 02:42:35;;;;;;;183.57;68.45;;;-0.50;99.90;;;;;;5044084;28;20049;-74
2021/01/04 02:45:07;;;;;;;189.40;71.68;;;-0.40;99.90;;;;;;5029048;28;20523;-73
2021/01/04 02:48:04;;;;;;;195.05;69.93;;;-0.40;99.90;;;;;;5035665;28;20159;-74
2021/01/04 02:50:42;;;;;;;185.77;68.47;;;-0.40;99.90;;;;;;5047534;28;20119;-73
2021/01/04 02:53:08;;;;;;;188.05;68.93;;;-0.50;99.90;;;;;;5030143;28;20076;-73
2021/01/04 02:55:53;;;;;;;190.55;69.25;;;-0.50;99.90;;;;;;5046922;28;20045;-73
2021/01/04 02:58:44;;;;;;;182.75;68.10;;;-0.40;99.90;;;;;;5047192;28;20109;-74
2021/01/04 03:01:17;;;;;;;191.43;66.82;;;-0.40;99.90;;;;;;5037242;28;20069;-73
2021/01/04 03:03:47;;;;;;;194.90;68.07;;;-0.40;99.90;;;;;;5027517;28;20050;-73
2021/01/04 03:06:19;;;;;;;189.23;68.82;;;-0.40;99.90;;;;;;5047830;28;20147;-73
2021/01/04 03:08:45;;;;;;;211.27;70.65;;;-0.50;99.90;;;;;;5046858;28;20511;-73
2021/01/04 03:11:15;;;;;;;216.20;73.70;;;-0.50;99.90;;;;;;5047097;28;20036;-73
2021/01/04 03:14:01;;;;;;;201.20;70.18;;;-0.50;99.90;;;;;;5029097;28;20060;-73
2021/01/04 03:16:55;;;;;;;188.25;67.78;;;-0.50;99.90;;;;;;5047469;28;20391;-74
2021/01/04 03:19:27;;;;;;;206.95;69.55;;;-0.50;99.90;;;;;;5046610;28;20878;-74
2021/01/04 03:22:03;;;;;;;202.40;69.68;;;-0.50;99.90;;;;;;5026105;28;20216;-73
2021/01/04 03:24:31;;;;;;;228.98;72.70;;;-0.50;99.90;;;;;;5045700;28;20747;-74
2021/01/04 03:27:03;;;;;;;223.18;73.45;;;-0.50;99.90;;;;;;5047552;28;20107;-74
2021/01/04 03:29:29;;;;;;;211.25;72.22;;;-0.50;99.90;;;;;;5046559;28;20620;-74
2021/01/04 03:31:56;;;;;;;216.60;74.05;;;-0.50;99.90;;;;;;5047359;28;20049;-73
2021/01/04 03:34:22;;;;;;;199.55;69.15;;;-0.50;99.90;;;;;;5045979;28;20128;-73
2021/01/04 03:36:49;;;;;;;212.85;71.30;;;-0.50;99.90;;;;;;5047594;28;20045;-74
2021/01/04 03:39:15;;;;;;;203.05;70.10;;;-0.50;99.90;;;;;;5024735;28;20103;-74
2021/01/04 03:41:42;;;;;;;210.27;71.78;;;-0.50;99.90;;;;;;5026123;28;20136;-73
2021/01/04 03:44:09;;;;;;;216.82;73.97;;;-0.50;99.90;;;;;;5044209;28;20076;-74
2021/01/04 03:46:36;;;;;;;175.38;65.38;;;-0.50;99.90;;;;;;5041240;28;20425;-73
2021/01/04 03:49:02;;;;;;;199.15;71.47;;;-0.50;99.90;;;;;;5046187;28;20076;-73
2021/01/04 03:51:28;;;;;;;176.15;67.93;;;-0.50;99.90;;;;;;5029689;28;20059;-74
2021/01/04 03:53:55;;;;;;;173.00;66.93;;;-0.50;99.90;;;;;;5046321;28;20126;-74
2021/01/04 03:56:22;;;;;;;177.18;67.55;;;-0.40;99.90;;;;;;5034758;28;20041;-74
2021/01/04 03:58:48;;;;;;;185.05;66.93;;;-0.40;99.90;;;;;;5044697;28;20048;-74
2021/01/04 04:01:14;;;;;;;180.93;66.97;;;-0.40;99.90;;;;;;5047348;28;20084;-74
2021/01/04 04:03:41;;;;;;;191.18;67.88;;;-0.50;99.90;;;;;;5046053;28;20103;-73
2021/01/04 04:06:10;;;;;;;193.57;68.53;;;-0.50;99.90;;;;;;5047241;28;20128;-73
2021/01/04 04:08:42;;;;;;;187.07;67.05;;;-0.40;99.90;;;;;;5045490;28;20045;-74
2021/01/04 04:11:08;;;;;;;154.40;53.17;;;-0.50;99.90;;;;;;5046994;28;20045;-74
2021/01/04 04:13:35;;;;;;;199.35;69.97;;;-0.40;99.90;;;;;;5045963;28;20788;-74
2021/01/04 04:16:01;;;;;;;198.98;70.18;;;-0.50;99.90;;;;;;5047225;28;20156;-74
2021/01/04 04:18:28;;;;;;;194.80;68.90;;;-0.40;99.90;;;;;;5045912;28;20128;-74
2021/01/04 04:20:54;;;;;;;181.02;67.32;;;-0.50;99.90;;;;;;5046604;28;20045;-74
2021/01/04 04:23:21;;;;;;;193.43;68.82;;;-0.40;99.90;;;;;;5028611;28;20860;-75
2021/01/04 04:25:48;;;;;;;181.98;67.18;;;-0.50;99.90;;;;;;5046921;28;20068;-73
2021/01/04 04:28:14;;;;;;;183.85;67.07;;;-0.50;99.90;;;;;;5045649;28;20127;-73
2021/01/04 04:30:40;;;;;;;188.95;67.72;;;-0.50;99.90;;;;;;5046894;28;20051;-74
2021/01/04 04:33:07;;;;;;;189.23;67.57;;;-0.50;99.90;;;;;;5045807;28;20122;-73
2021/01/04 04:35:33;;;;;;;190.25;67.30;;;-0.50;99.90;;;;;;5046672;28;20124;-73
2021/01/04 04:38:00;;;;;;;189.00;68.30;;;-0.50;99.90;;;;;;5046487;28;20096;-73
2021/01/04 04:40:32;;;;;;;192.25;69.10;;;-0.50;99.90;;;;;;5045880;28;20049;-74
2021/01/04 04:43:42;;;;;;;197.55;68.53;;;-0.40;99.90;;;;;;5045867;28;20688;-74
2021/01/04 04:46:32;;;;;;;186.20;68.70;;;-0.40;99.90;;;;;;5023582;28;20051;-74
2021/01/04 04:49:09;;;;;;;192.07;66.65;;;-0.50;99.90;;;;;;5045592;28;20095;-74
2021/01/04 04:51:57;;;;;;;182.90;67.82;;;-0.50;99.90;;;;;;5046826;28;20057;-73
2021/01/04 04:55:00;;;;;;;175.65;64.28;;;-0.50;99.90;;;;;;5045042;28;20148;-74
2021/01/04 04:57:36;;;;;;;178.80;66.70;;;-0.50;99.90;;;;;;5017353;28;20459;-74
2021/01/04 05:00:05;;;;;;;193.57;67.60;;;-0.50;99.90;;;;;;5046148;28;20528;-74
2021/01/04 05:03:11;;;;;;;178.90;67.57;;;-0.50;99.90;;;;;;5043910;28;20045;-74
2021/01/04 05:06:14;;;;;;;179.40;65.18;;;-0.50;99.90;;;;;;5032951;28;20208;-73
2021/01/04 05:09:11;;;;;;;182.82;65.97;;;-0.50;99.90;;;;;;5042348;28;20080;-74
2021/01/04 05:11:40;;;;;;;178.50;63.17;;;-0.50;99.90;;;;;;5046223;28;20145;-73
2021/01/04 05:14:28;;;;;;;173.52;66.47;;;-0.50;99.90;;;;;;5027049;28;20078;-73
2021/01/04 05:16:57;;;;;;;178.32;64.57;;;-0.50;99.90;;;;;;5046364;28;20074;-73
2021/01/04 05:20:08;;;;;;;176.52;64.60;;;-0.50;99.90;;;;;;5044756;28;20130;-74
2021/01/04 05:23:06;;;;;;;179.70;67.28;;;-0.50;99.90;;;;;;5045776;28;20182;-73
2021/01/04 05:25:45;;;;;;;185.10;66.63;;;-0.50;99.90;;;;;;5044899;28;20048;-74
2021/01/04 05:28:33;;;;;;;172.40;64.65;;;-0.50;99.90;;;;;;5045125;28;20566;-78
2021/01/04 05:31:24;;;;;;;182.57;67.38;;;-0.50;99.90;;;;;;5031978;28;20114;-77
2021/01/04 05:34:01;;;;;;;187.82;66.35;;;-0.50;99.90;;;;;;5044755;28;20682;-79
2021/01/04 05:36:46;;;;;;;183.95;68.32;;;-0.50;99.90;;;;;;5045622;28;20048;-78
2021/01/04 05:39:44;;;;;;;166.52;66.90;;;-0.50;99.90;;;;;;5044984;28;20212;-78
2021/01/04 05:42:29;;;;;;;180.10;66.15;;;-0.50;99.90;;;;;;5033283;28;20072;-79
2021/01/04 05:45:02;;;;;;;178.35;66.70;;;-0.50;99.90;;;;;;5041223;28;20531;-78
2021/01/04 05:47:54;;;;;;;174.45;65.60;;;-0.50;99.90;;;;;;5045165;28;20114;-77
2021/01/04 05:50:38;;;;;;;179.25;64.85;;;-0.50;99.90;;;;;;5018988;28;20083;-81
2021/01/04 05:53:05;;;;;;;173.32;66.10;;;-0.50;99.90;;;;;;5042808;28;20068;-76
2021/01/04 05:55:31;;;;;;;165.57;63.63;;;-0.50;99.90;;;;;;5043733;28;20044;-79
2021/01/04 05:58:10;;;;;;;163.20;63.65;;;-0.50;99.90;;;;;;5045535;28;20110;-79
2021/01/04 06:00:37;;;;;;;157.85;61.90;;;-0.50;99.90;;;;;;5028230;28;20087;-76
2021/01/04 06:03:09;;;;;;;164.20;64.15;;;-0.50;99.90;;;;;;5044393;28;20124;-76
2021/01/04 06:05:37;;;;;;;164.77;64.28;;;-0.50;99.90;;;;;;5014366;28;20523;-78
2021/01/04 06:08:04;;;;;;;162.95;66.57;;;-0.50;99.90;;;;;;5026317;28;20127;-79
2021/01/04 06:10:36;;;;;;;151.32;61.00;;;-0.50;99.90;;;;;;5025988;28;20049;-74
2021/01/04 06:13:19;;;;;;;160.55;64.03;;;-0.50;99.90;;;;;;5038628;28;20273;-74
2021/01/04 06:16:12;;;;;;;156.32;65.10;;;-0.50;99.90;;;;;;5027993;28;20122;-74
2021/01/04 06:18:49;;;;;;;156.57;62.58;;;-0.50;99.90;;;;;;5042409;28;20189;-74
2021/01/04 06:21:28;;;;;;;145.77;59.80;;;-0.50;99.90;;;;;;5033569;28;20073;-75
2021/01/04 06:24:00;;;;;;;157.75;62.28;;;-0.50;99.90;;;;;;5025740;28;20056;-74
2021/01/04 06:26:54;;;;;;;148.27;58.50;;;-0.50;99.90;;;;;;5044377;28;20067;-74
2021/01/04 06:29:43;;;;;;;149.07;61.13;;;-0.50;99.90;;;;;;5025943;28;20087;-76
2021/01/04 06:32:30;;;;;;;144.20;59.25;;;-0.50;99.90;;;;;;5044163;28;20960;-75
2021/01/04 06:35:04;;;;;;;143.98;58.97;;;-0.50;99.90;;;;;;5040044;28;20045;-74
2021/01/04 06:37:33;;;;;;;145.43;58.33;;;-0.50;99.90;;;;;;5022286;28;20098;-74
2021/01/04 06:40:09;;;;;;;137.68;59.83;;;-0.50;99.90;;;;;;5018048;28;20073;-77
2021/01/04 06:42:39;;;;;;;140.35;58.03;;;-0.50;99.90;;;;;;5033854;28;20096;-75
2021/01/04 06:45:22;;;;;;;147.13;59.28;;;-0.50;99.90;;;;;;5018398;28;20433;-76
2021/01/04 06:47:51;;;;;;;141.82;60.70;;;-0.40;99.90;;;;;;5034275;28;20045;-74
2021/01/04 06:50:33;;;;;;;154.98;60.67;;;-0.50;99.90;;;;;;5019664;28;20145;-76
2021/01/04 06:53:09;;;;;;;149.55;60.25;;;-0.40;99.90;;;;;;5033082;28;20468;-74
2021/01/04 06:56:09;;;;;;;143.52;60.53;;;-0.40;99.90;;;;;;5031460;28;20103;-73
2021/01/04 06:59:04;;;;;;;142.05;58.65;;;-0.50;99.90;;;;;;5031317;28;20611;-77
2021/01/04 07:01:42;;;;;;;143.18;58.78;;;-0.50;99.90;;;;;;5018060;28;20134;-76
2021/01/04 07:04:44;;;;;;;139.48;58.55;;;-0.50;99.90;;;;;;5039531;28;20041;-74
2021/01/04 07:07:57;;;;;;;148.70;59.30;;;-0.50;99.90;;;;;;4959116;28;20073;-74
2021/01/04 07:11:01;;;;;;;137.98;57.13;;;-0.50;99.90;;;;;;4954236;28;20116;-73
2021/01/04 07:14:04;;;;;;;138.15;56.58;;;-0.50;99.90;;;;;;4949608;28;20126;-73
2021/01/04 07:16:57;;;;;;;141.68;60.72;;;-0.50;99.90;;;;;;5040566;28;20099;-73
2021/01/04 07:19:44;;;;;;;138.40;58.42;;;-0.50;99.90;;;;;;5042427;28;20045;-73
2021/01/04 07:22:35;;;;;;;148.82;59.95;;;-0.50;99.90;;;;;;5025189;28;20605;-73
2021/01/04 07:25:23;;;;;;;145.27;60.42;;;-0.50;99.90;;;;;;5041490;28;20080;-74
2021/01/04 07:28:16;;;;;;;153.48;63.25;;;-0.40;99.90;;;;;;5043128;28;20143;-74
2021/01/04 07:30:50;;;;;;;;;;;-0.40;99.90;;;;;;5045848;28;20060;-73
2021/01/04 07:33:40;;;;;;;144.73;57.15;;;-0.40;99.90;;;;;;5044532;28;19931;-74
2021/01/04 07:36:16;;;;;;;145.65;58.53;;;-0.40;99.90;;;;;;5026913;28;20040;-74
2021/01/04 07:39:08;;;;;;;140.07;59.45;;;-0.40;99.90;;;;;;5028437;28;20049;-73
2021/01/04 07:41:42;;;;;;;138.85;56.65;;;-0.40;99.90;;;;;;5026875;28;20459;-73
2021/01/04 07:44:21;;;;;;;143.10;58.60;;;-0.40;99.90;;;;;;5026840;28;20079;-73
2021/01/04 07:47:24;;;;;;;138.93;58.53;;;-0.40;99.90;;;;;;5045660;28;20155;-74
2021/01/04 07:50:07;;;;;;;131.38;58.47;;;-0.40;99.90;;;;;;5034589;28;20041;-74
2021/01/04 07:53:08;;;;;;;147.15;62.72;;;-0.30;99.90;;;;;;5038182;28;20080;-74
2021/01/04 07:56:10;;;;;;;140.60;57.78;;;-0.40;99.90;;;;;;5034469;28;20159;-74
2021/01/04 07:58:42;;;;;;;137.18;58.13;;;-0.30;99.90;;;;;;4944193;28;20067;-74
2021/01/04 08:01:26;;;;;;;141.73;60.05;;;-0.30;99.90;;;;;;4944522;28;20095;-74
2021/01/04 08:04:29;;;;;;;133.65;58.42;;;-0.30;99.90;;;;;;4944166;28;20078;-75
2021/01/04 08:07:07;;;;;;;134.63;58.95;;;-0.30;99.90;;;;;;4945595;28;20502;-74
2021/01/04 08:09:54;;;;;;;136.45;57.65;;;-0.30;99.90;;;;;;4944063;28;20186;-74
2021/01/04 08:12:58;;;;;;;140.77;56.95;;;-0.20;99.90;;;;;;4943625;28;20094;-75
2021/01/04 08:15:42;;;;;;;125.45;55.15;;;-0.20;99.90;;;;;;4945341;28;20066;-73
2021/01/04 08:18:21;;;;;;;122.97;56.33;;;-0.20;99.90;;;;;;4943667;28;20058;-74
2021/01/04 08:20:47;;;;;;;120.93;53.55;;;-0.20;99.90;;;;;;4945628;28;20175;-74
2021/01/04 08:23:31;;;;;;;124.53;54.65;;;-0.20;99.90;;;;;;4945076;28;20719;-74
2021/01/04 08:26:04;;;;;;;125.03;56.92;;;-0.20;99.90;;;;;;4937724;28;20562;-74
2021/01/04 08:28:40;;;;;;;127.63;55.35;;;-0.10;99.90;;;;;;4944152;28;20081;-74
2021/01/04 08:31:45;;;;;;;119.25;53.65;;;-0.10;99.90;;;;;;4932566;28;20047;-73
2021/01/04 08:34:24;;;;;;;113.10;51.47;;;-0.10;99.90;;;;;;5014799;28;20037;-74
2021/01/04 08:36:57;;;;;;;107.60;52.50;;;0.00;99.90;;;;;;5028645;28;20328;-74
2021/01/04 08:39:25;;;;;;;109.43;51.63;;;0.00;99.90;;;;;;5044795;28;20391;-73
2021/01/04 08:42:05;;;;;;;109.15;52.67;;;0.10;99.90;;;;;;5027441;28;20499;-72
2021/01/04 08:44:35;;;;;;;118.80;53.78;;;0.10;99.90;;;;;;5044743;28;20053;-74
2021/01/04 08:47:08;;;;;;;109.22;51.83;;;0.10;99.90;;;;;;5043450;28;20068;-74
2021/01/04 08:49:42;;;;;;;109.85;52.75;;;0.20;99.90;;;;;;5044654;28;20097;-75
2021/01/04 08:52:22;;;;;;;104.30;52.05;;;0.20;99.90;;;;;;5029018;28;20126;-74
2021/01/04 08:55:01;;;;;;;104.00;52.72;;;0.20;99.90;;;;;;5042252;28;20214;-74
2021/01/04 08:57:42;;;;;;;101.90;49.00;;;0.20;99.90;;;;;;5039297;28;20049;-75
2021/01/04 09:00:21;;;;;;;104.45;50.38;;;0.20;99.90;;;;;;5022189;28;20602;-73
2021/01/04 09:02:49;;;;;;;99.40;48.95;;;0.30;99.90;;;;;;5043044;28;20110;-73
2021/01/04 09:05:38;;;;;;;94.40;48.40;;;0.30;99.90;;;;;;5027007;28;20049;-73
2021/01/04 09:08:10;;;;;;;101.22;49.00;;;0.30;99.90;;;;;;5023529;28;20090;-74
2021/01/04 09:10:43;;;;;;;96.78;50.13;;;0.30;99.90;;;;;;5022686;28;20068;-74
2021/01/04 09:13:38;;;;;;;96.15;48.85;;;0.40;99.90;;;;;;5040454;28;20351;-73
2021/01/04 09:16:27;;;;;;;104.03;48.55;;;0.30;99.90;;;;;;5019342;28;20067;-74
2021/01/04 09:19:25;;;;;;;94.35;47.95;;;0.40;99.90;;;;;;5025107;28;20045;-74
2021/01/04 09:22:11;;;;;;;93.97;48.65;;;0.30;99.90;;;;;;5026893;28;20067;-74
2021/01/04 09:24:42;;;;;;;88.88;46.60;;;0.40;99.90;;;;;;5025430;28;20049;-74
2021/01/04 09:27:31;;;;;;;95.85;47.33;;;0.40;99.90;;;;;;5026906;28;20076;-75
2021/01/04 09:30:10;;;;;;;95.70;47.50;;;0.40;99.90;;;;;;5037240;28;20135;-75
2021/01/04 09:32:42;;;;;;;95.22;46.35;;;0.40;99.90;;;;;;5040293;28;20045;-74
2021/01/04 09:35:19;;;;;;;90.60;46.45;;;0.50;99.90;;;;;;5043981;28;20111;-74
2021/01/04 09:37:58;;;;;;;89.32;46.20;;;0.50;99.90;;;;;;5026738;28;20163;-74
2021/01/04 09:40:27;;;;;;;86.95;45.05;;;0.60;99.90;;;;;;5023874;28;20487;-75
2021/01/04 09:43:10;;;;;;;87.65;45.15;;;0.60;99.90;;;;;;5025822;28;20106;-74
2021/01/04 09:45:42;;;;;;;84.25;43.33;;;0.70;99.90;;;;;;5026067;28;20049;-75
2021/01/04 09:48:32;;;;;;;84.95;43.15;;;0.70;99.90;;;;;;5022429;28;20132;-75
2021/01/04 09:51:04;;;;;;;88.32;44.70;;;0.60;99.90;;;;;;5038263;28;20045;-74
2021/01/04 09:53:32;;;;;;;;;;;0.70;99.90;;;;;;5043249;28;20057;-75
2021/01/04 09:56:03;;;;;;;78.45;42.60;;;0.70;99.90;;;;;;5042674;28;19920;-74
2021/01/04 09:58:33;;;;;;;85.78;44.55;;;0.70;99.90;;;;;;5042663;28;20056;-74
2021/01/04 10:01:13;;;;;;;60.30;31.73;;;0.70;99.90;;;;;;5037801;28;20048;-74
2021/01/04 10:03:51;;;;;;;84.78;42.97;;;0.70;99.90;;;;;;5024324;28;20953;-75
2021/01/04 10:06:18;;;;;;;83.13;43.65;;;0.70;99.90;;;;;;5025969;28;20510;-73
2021/01/04 10:08:48;;;;;;;83.43;44.05;;;0.70;99.90;;;;;;5023847;28;20048;-75
2021/01/04 10:11:21;;;;;;;84.00;44.75;;;0.80;99.90;;;;;;5044426;28;20059;-75
2021/01/04 10:13:52;;;;;;;73.65;41.17;;;0.80;99.90;;;;;;5041754;28;20074;-74
2021/01/04 10:16:27;;;;;;;76.90;40.53;;;0.90;99.90;;;;;;5039394;28;20041;-74
2021/01/04 10:19:01;;;;;;;75.10;39.03;;;0.90;99.90;;;;;;5025785;28;20495;-76
2021/01/04 10:21:41;;;;;;;54.75;30.20;;;0.90;99.90;;;;;;5044856;28;20099;-74
2021/01/04 10:24:22;;;;;;;70.63;39.38;;;0.90;99.90;;;;;;5041940;28;20120;-78
2021/01/04 10:26:53;;;;;;;75.93;40.72;;;0.90;99.90;;;;;;5043916;28;20546;-74
2021/01/04 10:29:26;;;;;;;79.63;41.97;;;0.90;99.90;;;;;;5025635;28;20091;-75
2021/01/04 10:32:28;;;;;;;69.57;38.88;;;1.00;99.90;;;;;;5042572;28;20144;-74
2021/01/04 10:34:55;;;;;;;70.13;39.35;;;1.00;99.90;;;;;;5040733;28;20118;-74
2021/01/04 10:37:27;;;;;;;87.35;41.65;;;1.00;99.90;;;;;;5039527;28;20041;-76
2021/01/04 10:39:59;;;;;;;75.00;41.13;;;0.90;99.90;;;;;;5042069;28;20049;-74
2021/01/04 10:42:27;;;;;;;70.82;39.92;;;0.80;99.90;;;;;;5020803;28;20045;-75
2021/01/04 10:45:03;;;;;;;70.88;39.25;;;0.80;99.90;;;;;;5042498;28;20053;-75
2021/01/04 10:48:13;;;;;;;77.93;40.67;;;0.80;99.90;;;;;;5040036;28;20127;-74
2021/01/04 10:50:42;;;;;;;84.30;42.22;;;0.70;99.90;;;;;;5033097;28;20041;-74
2021/01/04 10:53:30;;;;;;;82.35;41.22;;;0.70;99.90;;;;;;5042279;28;20075;-74
2021/01/04 10:56:06;;;;;;;74.75;40.70;;;0.70;99.90;;;;;;5030879;28;20134;-75
2021/01/04 10:58:39;;;;;;;75.38;39.83;;;0.70;99.90;;;;;;5017158;28;20045;-75
2021/01/04 11:01:22;;;;;;;70.78;38.50;;;0.80;99.90;;;;;;5018334;28;20726;-74
2021/01/04 11:03:54;;;;;;;73.53;40.25;;;0.80;99.90;;;;;;5020319;28;20048;-74
2021/01/04 11:06:33;;;;;;;71.75;39.13;;;0.80;99.90;;;;;;5047386;28;20535;-75
2021/01/04 11:09:19;;;;;;;68.35;38.53;;;0.90;99.90;;;;;;5029087;28;20052;-76
2021/01/04 11:11:51;;;;;;;69.38;37.70;;;0.90;99.90;;;;;;5046024;28;20045;-75
2021/01/04 11:14:24;;;;;;;69.57;37.42;;;1.00;99.90;;;;;;5043425;28;20531;-74
2021/01/04 11:17:19;;;;;;;73.47;39.33;;;1.00;99.90;;;;;;5027752;28;20073;-74
2021/01/04 11:19:46;;;;;;;64.10;36.05;;;1.00;99.90;;;;;;5027877;28;20076;-74
2021/01/04 11:22:13;;;;;;;63.08;35.85;;;1.00;99.90;;;;;;5044177;28;20468;-74
2021/01/04 11:24:39;;;;;;;64.10;36.17;;;1.10;99.90;;;;;;5043355;28;20053;-75
2021/01/04 11:27:06;;;;;;;63.97;37.30;;;1.00;99.90;;;;;;5027442;28;20138;-74
2021/01/04 11:29:33;;;;;;;88.15;44.25;;;1.00;99.90;;;;;;5040058;28;20073;-75
2021/01/04 11:31:59;;;;;;;72.43;39.83;;;1.00;99.90;;;;;;5040337;28;20081;-75
2021/01/04 11:34:26;;;;;;;66.07;36.22;;;1.00;99.90;;;;;;5044882;28;20080;-75
2021/01/04 11:36:53;;;;;;;57.88;34.75;;;1.00;99.90;;;;;;5029630;28;20076;-74
2021/01/04 11:39:20;;;;;;;57.53;32.85;;;1.00;99.90;;;;;;5038153;28;20040;-75
2021/01/04 11:41:46;;;;;;;59.92;34.33;;;0.90;99.90;;;;;;5037658;28;20095;-75
2021/01/04 11:44:15;;;;;;;58.42;34.75;;;0.90;99.90;;;;;;5043739;28;20053;-75
2021/01/04 11:46:42;;;;;;;59.10;32.95;;;0.90;99.90;;;;;;5021329;28;20447;-74
2021/01/04 11:49:09;;;;;;;59.35;32.97;;;1.00;99.90;;;;;;5045734;28;20049;-75
2021/01/04 11:51:35;;;;;;;57.80;34.28;;;1.00;99.90;;;;;;5023819;28;20187;-75
2021/01/04 11:54:04;;;;;;;53.03;31.15;;;1.00;99.90;;;;;;5045863;28;20053;-75
2021/01/04 11:56:32;;;;;;;52.10;31.30;;;0.90;99.90;;;;;;5027642;28;20080;-75
2021/01/04 11:58:58;;;;;;;54.08;30.65;;;0.90;99.90;;;;;;5028329;28;20044;-75
2021/01/04 12:01:26;;;;;;;49.05;29.20;;;1.00;99.90;;;;;;5046162;28;20036;-76
2021/01/04 12:03:54;;;;;;;49.72;29.05;;;1.00;99.90;;;;;;5026698;28;20156;-74
2021/01/04 12:06:21;;;;;;;49.22;27.52;;;0.90;99.90;;;;;;5041216;28;20052;-76
2021/01/04 12:08:48;;;;;;;49.75;27.48;;;0.90;99.90;;;;;;5043472;28;20067;-75
2021/01/04 12:11:15;;;;;;;48.80;27.85;;;0.90;99.90;;;;;;5041006;28;20119;-75
2021/01/04 12:13:41;;;;;;;46.08;27.15;;;0.90;99.90;;;;;;5039717;28;20057;-76
2021/01/04 12:16:08;;;;;;;44.50;27.23;;;0.80;99.90;;;;;;5026063;28;20080;-76
2021/01/04 12:18:35;;;;;;;44.85;26.02;;;0.80;99.90;;;;;;5042506;28;20110;-74
2021/01/04 12:21:01;;;;;;;35.03;22.00;;;0.80;99.90;;;;;;5039152;28;20506;-74
2021/01/04 12:23:27;;;;;;;36.38;22.00;;;0.70;99.90;;;;;;5043555;28;20041;-75
2021/01/04 12:25:58;;;;;;;34.17;20.90;;;0.70;99.90;;;;;;5042159;28;20140;-75
2021/01/04 12:28:27;;;;;;;34.70;20.77;;;0.60;99.90;;;;;;5044775;28;20045;-75
2021/01/04 12:30:53;;;;;;;35.92;21.70;;;0.50;99.90;;;;;;5043535;28;20049;-75
2021/01/04 12:33:21;;;;;;;38.80;22.00;;;0.40;99.90;;;;;;5043025;28;20402;-75
2021/01/04 12:35:48;;;;;;;48.75;25.50;;;0.40;99.90;;;;;;5046041;28;20132;-73
2021/01/04 12:38:14;;;;;;;35.85;22.17;;;0.40;99.90;;;;;;5040019;28;20081;-74
2021/01/04 12:40:40;;;;;;;34.72;21.27;;;0.40;99.90;;;;;;5044083;28;20076;-74
2021/01/04 12:43:07;;;;;;;40.78;24.27;;;0.30;99.90;;;;;;5041829;28;20045;-74
2021/01/04 12:45:35;;;;;;;42.75;24.17;;;0.30;99.90;;;;;;5036777;28;20057;-74
2021/01/04 12:48:02;;;;;;;42.20;24.63;;;0.20;99.90;;;;;;5033418;28;20057;-74
2021/01/04 12:50:29;;;;;;;69.40;32.92;;;0.20;99.90;;;;;;5035549;28;20255;-74
2021/01/04 12:52:58;;;;;;;49.90;28.92;;;0.20;99.90;;;;;;5045225;28;20064;-73
2021/01/04 12:55:33;;;;;;;43.05;26.15;;;0.20;99.90;;;;;;5030211;28;20056;-73
2021/01/04 12:58:06;;;;;;;43.35;25.48;;;0.20;99.90;;;;;;5044077;28;20060;-74
2021/01/04 13:00:36;;;;;;;45.10;24.85;;;0.20;99.90;;;;;;5018038;28;20102;-74
2021/01/04 13:03:05;;;;;;;41.97;25.55;;;0.20;99.90;;;;;;5025829;28;20136;-74
2021/01/04 13:05:35;;;;;;;38.95;23.15;;;0.20;99.90;;;;;;5026035;28;20040;-74
2021/01/04 13:08:04;;;;;;;48.45;26.13;;;0.20;99.90;;;;;;5045085;28;20139;-74
2021/01/04 13:10:40;;;;;;;45.40;25.92;;;0.20;99.90;;;;;;5043038;28;20076;-75
2021/01/04 13:13:09;;;;;;;41.80;25.42;;;0.20;99.90;;;;;;5022754;28;20507;-75
2021/01/04 13:15:38;;;;;;;41.05;24.95;;;0.20;99.90;;;;;;5024603;28;20388;-74
2021/01/04 13:18:07;;;;;;;39.40;24.98;;;0.20;99.90;;;;;;5016037;28;20048;-74
2021/01/04 13:20:39;;;;;;;44.50;26.33;;;0.20;99.90;;;;;;5024654;28;20053;-75